createdAt,value
2019-01-30T00:01:07.402Z,95087.48
2019-01-30T00:04:04.087Z,95087.13
2019-01-30T00:07:00.959Z,95082.23
2019-01-30T00:09:56.259Z,95071.05
2019-01-30T00:12:53.756Z,95066.55
2019-01-30T00:15:56.040Z,95063.60
2019-01-30T00:18:51.018Z,95056.97
2019-01-30T00:21:46.790Z,95046.07
2019-01-30T00:24:43.303Z,95051.82
2019-01-30T00:27:38.632Z,95039.76
2019-01-30T00:30:35.208Z,95034.44
2019-01-30T00:33:31.900Z,95035.32
2019-01-30T00:36:27.598Z,95031.20
2019-01-30T00:39:24.056Z,95020.88
2019-01-30T00:42:19.792Z,95022.02
2019-01-30T00:45:17.710Z,95018.75
2019-01-30T00:48:13.541Z,95017.05
2019-01-30T00:51:08.900Z,95012.02
2019-01-30T00:54:06.493Z,95004.49
2019-01-30T00:57:02.735Z,94991.97
2019-01-30T00:59:58.767Z,94996.52
2019-01-30T01:02:54.498Z,94992.72
2019-01-30T01:05:53.200Z,94987.30
2019-01-30T01:08:52.236Z,94986.86
2019-01-30T01:11:47.470Z,94982.78
2019-01-30T01:14:45.289Z,94981.08
2019-01-30T01:17:41.862Z,94981.41
2019-01-30T01:20:38.444Z,94977.25
2019-01-30T01:23:33.937Z,94968.14
2019-01-30T01:26:32.214Z,94966.90
2019-01-30T01:29:27.461Z,94974.34
2019-01-30T01:32:24.220Z,94966.90
2019-01-30T01:35:19.876Z,94970.20
2019-01-30T01:38:16.639Z,94971.80
2019-01-30T01:41:13.451Z,94953.45
2019-01-30T01:44:09.095Z,94942.11
2019-01-30T01:47:07.783Z,94946.83
2019-01-30T01:50:03.294Z,94936.72
2019-01-30T01:52:59.171Z,94936.72
2019-01-30T01:55:56.001Z,94931.69
2019-01-30T01:58:53.441Z,94934.88
2019-01-30T02:01:49.159Z,94929.46
2019-01-30T02:04:45.699Z,94926.63
2019-01-30T02:07:42.146Z,94921.66
2019-01-30T02:10:38.573Z,94910.42
2019-01-30T02:13:38.714Z,94910.77
2019-01-30T02:16:41.412Z,94909.43
2019-01-30T02:19:38.191Z,94905.28
2019-01-30T02:22:34.665Z,94898.20
2019-01-30T02:25:31.411Z,94891.56
2019-01-30T02:28:30.533Z,94895.71
2019-01-30T02:31:26.185Z,94894.08
2019-01-30T02:34:22.825Z,94890.33
2019-01-30T02:37:20.487Z,94891.50
2019-01-30T02:40:17.032Z,94890.61
2019-01-30T02:43:12.401Z,94888.55
2019-01-30T02:46:09.182Z,94883.16
2019-01-30T02:49:05.843Z,94883.88
2019-01-30T02:52:00.642Z,94884.77
2019-01-30T02:54:57.995Z,94878.98
2019-01-30T02:58:00.876Z,94873.95
2019-01-30T03:01:01.431Z,94865.48
2019-01-30T03:03:58.142Z,94862.91
2019-01-30T03:06:53.616Z,94852.91
2019-01-30T03:09:50.147Z,94858.75
2019-01-30T03:12:45.706Z,94856.63
2019-01-30T03:15:42.223Z,94855.81
2019-01-30T03:18:40.088Z,94852.98
2019-01-30T03:21:39.523Z,94854.96
2019-01-30T03:24:35.989Z,94845.75
2019-01-30T03:27:30.882Z,94846.81
2019-01-30T03:30:42.067Z,94846.81
2019-01-30T03:33:37.768Z,94844.19
2019-01-30T03:36:34.031Z,94849.05
2019-01-30T03:39:30.049Z,94841.75
2019-01-30T03:42:26.467Z,94843.30
2019-01-30T03:45:21.953Z,94844.69
2019-01-30T03:48:24.663Z,94848.72
2019-01-30T03:51:21.210Z,94845.00
2019-01-30T03:54:16.887Z,94849.53
2019-01-30T03:57:14.662Z,94831.53
2019-01-30T04:00:11.137Z,94829.88
2019-01-30T04:03:07.898Z,94833.59
2019-01-30T04:06:03.237Z,94836.95
2019-01-30T04:09:00.386Z,94826.16
2019-01-30T04:11:55.901Z,94822.00
2019-01-30T04:14:52.336Z,94820.31
2019-01-30T04:17:49.061Z,94823.14
2019-01-30T04:20:45.616Z,94815.63
2019-01-30T04:23:43.032Z,94815.09
2019-01-30T04:26:39.425Z,94812.50
2019-01-30T04:29:37.240Z,94808.29
2019-01-30T04:32:32.741Z,94802.55
2019-01-30T04:35:29.023Z,94800.78
2019-01-30T04:38:24.319Z,94797.48
2019-01-30T04:41:20.800Z,94801.56
2019-01-30T04:44:16.513Z,94803.95
2019-01-30T04:47:13.063Z,94801.48
2019-01-30T04:50:10.051Z,94802.19
2019-01-30T04:53:05.638Z,94803.88
2019-01-30T04:56:03.916Z,94795.64
2019-01-30T04:58:59.685Z,94793.63
2019-01-30T05:01:57.416Z,94790.69
2019-01-30T05:04:53.169Z,94789.91
2019-01-30T05:07:53.796Z,94782.47
2019-01-30T05:10:50.431Z,94780.20
2019-01-30T05:13:46.884Z,94773.89
2019-01-30T05:16:43.455Z,94778.84
2019-01-30T05:19:39.965Z,94776.72
2019-01-30T05:22:37.819Z,94773.01
2019-01-30T05:25:32.523Z,94775.84
2019-01-30T05:28:29.218Z,94776.89
2019-01-30T05:31:26.089Z,94776.89
2019-01-30T05:34:23.787Z,94771.12
2019-01-30T05:37:19.001Z,94771.12
2019-01-30T05:40:16.448Z,94772.75
2019-01-30T05:43:13.076Z,94771.86
2019-01-30T05:46:08.357Z,94776.27
2019-01-30T05:49:04.767Z,94780.45
2019-01-30T05:51:59.239Z,94784.16
2019-01-30T05:54:55.799Z,94777.47
2019-01-30T05:57:52.382Z,94781.15
2019-01-30T06:00:56.008Z,94785.75
2019-01-30T06:03:52.700Z,94786.10
2019-01-30T06:06:49.236Z,94786.48
2019-01-30T06:09:44.678Z,94797.05
2019-01-30T06:12:41.223Z,94783.62
2019-01-30T06:15:36.925Z,94785.02
2019-01-30T06:18:37.165Z,94783.31
2019-01-30T06:21:34.182Z,94779.20
2019-01-30T06:24:30.842Z,94782.42
2019-01-30T06:27:27.493Z,94768.98
2019-01-30T06:30:30.121Z,94768.29
2019-01-30T06:33:32.821Z,94772.00
2019-01-30T06:36:29.557Z,94776.60
2019-01-30T06:39:25.195Z,94779.63
2019-01-30T06:42:21.729Z,94776.26
2019-01-30T06:45:17.345Z,94787.05
2019-01-30T06:48:14.550Z,94788.02
2019-01-30T06:51:12.269Z,94782.92
2019-01-30T06:54:07.807Z,94791.40
2019-01-30T06:57:03.506Z,94785.40
2019-01-30T06:59:59.262Z,94782.20
2019-01-30T07:02:55.826Z,94776.11
2019-01-30T07:05:51.510Z,94772.75
2019-01-30T07:08:48.058Z,94778.13
2019-01-30T07:11:44.543Z,94780.61
2019-01-30T07:14:40.088Z,94779.48
2019-01-30T07:17:35.581Z,94779.36
2019-01-30T07:20:31.379Z,94781.84
2019-01-30T07:23:28.079Z,94781.95
2019-01-30T07:26:24.642Z,94790.34
2019-01-30T07:29:21.391Z,94788.91
2019-01-30T07:32:17.887Z,94790.88
2019-01-30T07:35:15.084Z,94792.27
2019-01-30T07:38:10.587Z,94802.30
2019-01-30T07:41:06.767Z,94802.63
2019-01-30T07:44:02.867Z,94802.63
2019-01-30T07:46:58.557Z,94811.91
2019-01-30T07:49:56.106Z,94816.05
2019-01-30T07:52:53.417Z,94820.31
2019-01-30T07:55:50.014Z,94820.38
2019-01-30T07:58:46.595Z,94809.02
2019-01-30T08:01:43.364Z,94811.60
2019-01-30T08:04:40.162Z,94817.63
2019-01-30T08:07:36.030Z,94816.98
2019-01-30T08:10:32.626Z,94817.94
2019-01-30T08:13:30.192Z,94817.66
2019-01-30T08:16:26.716Z,94814.82
2019-01-30T08:19:23.224Z,94814.95
2019-01-30T08:22:20.433Z,94815.94
2019-01-30T08:25:16.398Z,94811.22
2019-01-30T08:28:15.911Z,94819.54
2019-01-30T08:31:09.272Z,94815.59
2019-01-30T08:34:06.434Z,94827.67
2019-01-30T08:37:01.968Z,94836.03
2019-01-30T08:39:58.588Z,94844.00
2019-01-30T08:42:57.142Z,94851.16
2019-01-30T08:45:59.500Z,94858.41
2019-01-30T08:49:03.180Z,94852.70
2019-01-30T08:51:58.671Z,94851.22
2019-01-30T08:54:55.163Z,94852.66
2019-01-30T08:57:57.846Z,94852.36
2019-01-30T09:00:54.594Z,94854.48
2019-01-30T09:03:52.130Z,94860.81
2019-01-30T09:06:52.097Z,94857.61
2019-01-30T09:09:48.610Z,94861.91
2019-01-30T09:12:45.346Z,94859.58
2019-01-30T09:15:42.191Z,94861.42
2019-01-30T09:18:38.736Z,94869.06
2019-01-30T09:21:35.073Z,94873.36
2019-01-30T09:24:32.840Z,94872.66
2019-01-30T09:27:30.519Z,94880.33
2019-01-30T09:30:34.566Z,94883.04
2019-01-30T09:33:32.428Z,94893.53
2019-01-30T09:36:29.108Z,94899.83
2019-01-30T09:39:24.624Z,94906.61
2019-01-30T09:42:21.381Z,94923.34
2019-01-30T09:45:17.260Z,94937.95
2019-01-30T09:48:13.869Z,94949.69
2019-01-30T09:51:09.236Z,94958.52
2019-01-30T09:54:06.266Z,94960.66
2019-01-30T09:57:01.785Z,94973.69
2019-01-30T09:59:58.325Z,94978.73
2019-01-30T10:02:54.847Z,94970.16
2019-01-30T10:05:52.444Z,94972.84
2019-01-30T10:08:49.087Z,94960.95
2019-01-30T10:11:44.360Z,94960.90
2019-01-30T10:14:41.800Z,94954.72
2019-01-30T10:17:37.284Z,94956.16
2019-01-30T10:20:37.761Z,94948.41
2019-01-30T10:23:34.025Z,94950.53
2019-01-30T10:26:30.547Z,94953.89
2019-01-30T10:29:29.828Z,94944.91
2019-01-30T10:32:26.692Z,94974.87
2019-01-30T10:35:24.202Z,94992.33
2019-01-30T10:38:23.820Z,94990.31
2019-01-30T10:41:20.324Z,94991.66
2019-01-30T10:44:17.105Z,94996.39
2019-01-30T10:47:13.058Z,95008.58
2019-01-30T10:50:08.803Z,95003.67
2019-01-30T10:53:06.383Z,95000.13
2019-01-30T10:56:04.658Z,94987.13
2019-01-30T10:59:00.425Z,94996.98
2019-01-30T11:01:56.991Z,95007.50
2019-01-30T11:04:53.643Z,95004.01
2019-01-30T11:07:50.478Z,95001.19
2019-01-30T11:10:46.185Z,95001.63
2019-01-30T11:13:42.773Z,95010.80
2019-01-30T11:16:39.345Z,95010.45
2019-01-30T11:19:35.616Z,95006.80
2019-01-30T11:22:31.971Z,94995.16
2019-01-30T11:25:30.230Z,94993.48
2019-01-30T11:28:27.945Z,95002.67
2019-01-30T11:31:24.671Z,95003.56
2019-01-30T11:34:40.906Z,94999.43
2019-01-30T11:37:37.844Z,95008.94
2019-01-30T11:40:33.242Z,95002.84
2019-01-30T11:43:29.954Z,94997.96
2019-01-30T11:46:25.593Z,95007.22
2019-01-30T11:49:22.077Z,94992.31
2019-01-30T11:52:17.723Z,94994.94
2019-01-30T11:55:15.462Z,94988.42
2019-01-30T11:58:11.272Z,94992.58
2019-01-30T12:01:10.808Z,94985.09
2019-01-30T12:04:17.719Z,94981.80
2019-01-30T12:07:06.979Z,94984.30
2019-01-30T12:10:08.400Z,94986.38
2019-01-30T12:13:15.011Z,94983.64
2019-01-30T12:16:18.018Z,94985.41
2019-01-30T12:19:22.780Z,94990.47
2019-01-30T12:22:18.228Z,94983.48
2019-01-30T12:25:15.839Z,94988.48
2019-01-30T12:28:23.768Z,94982.18
2019-01-30T12:31:27.660Z,94983.81
2019-01-30T12:34:28.325Z,94986.31
2019-01-30T12:37:20.665Z,94985.51
2019-01-30T12:40:17.397Z,94992.08
2019-01-30T12:43:12.886Z,94969.56
2019-01-30T12:46:10.403Z,94967.87
2019-01-30T12:49:05.269Z,94973.66
2019-01-30T12:52:01.945Z,94967.92
2019-01-30T12:54:58.626Z,94969.66
2019-01-30T12:57:55.422Z,94968.89
2019-01-30T13:00:52.149Z,94969.80
2019-01-30T13:03:59.971Z,94973.19
2019-01-30T13:07:06.054Z,94969.06
2019-01-30T13:10:01.592Z,94968.64
2019-01-30T13:12:58.335Z,94966.53
2019-01-30T13:15:54.057Z,94968.67
2019-01-30T13:18:52.575Z,94968.30
2019-01-30T13:21:48.082Z,94974.17
2019-01-30T13:24:44.590Z,94971.33
2019-01-30T13:27:41.544Z,94981.05
2019-01-30T13:30:43.440Z,94967.81
2019-01-30T13:33:36.514Z,94968.69
2019-01-30T13:36:34.097Z,94963.76
2019-01-30T13:39:31.580Z,94961.31
2019-01-30T13:42:29.033Z,94967.62
2019-01-30T13:45:25.712Z,94970.61
2019-01-30T13:48:23.861Z,94972.75
2019-01-30T13:51:24.623Z,94977.77
2019-01-30T13:54:23.525Z,94975.30
2019-01-30T13:57:21.259Z,94982.84
2019-01-30T14:00:16.942Z,94984.95
2019-01-30T14:03:13.691Z,94977.85
2019-01-30T14:06:09.262Z,94982.41
2019-01-30T14:09:05.389Z,94985.69
2019-01-30T14:12:07.155Z,94994.86
2019-01-30T14:15:02.968Z,94996.88
2019-01-30T14:18:01.396Z,95000.19
2019-01-30T14:20:56.895Z,94998.49
2019-01-30T14:23:53.675Z,95004.69
2019-01-30T14:26:50.207Z,95006.30
2019-01-30T14:29:46.770Z,95011.28
2019-01-30T14:32:43.576Z,95009.63
2019-01-30T14:35:38.847Z,95010.88
2019-01-30T14:38:36.462Z,95020.42
2019-01-30T14:41:31.981Z,95011.65
2019-01-30T14:44:28.700Z,95016.23
2019-01-30T14:47:26.165Z,95021.62
2019-01-30T14:50:29.284Z,95026.17
2019-01-30T14:53:25.789Z,95024.50
2019-01-30T14:56:22.369Z,95038.63
2019-01-30T14:59:19.074Z,95036.10
2019-01-30T15:02:14.792Z,95031.91
2019-01-30T15:05:21.449Z,95045.16
2019-01-30T15:08:07.204Z,95048.47
2019-01-30T15:11:03.551Z,95037.61
2019-01-30T15:14:01.171Z,95045.03
2019-01-30T15:17:00.849Z,95044.59
2019-01-30T15:19:58.620Z,95043.70
2019-01-30T15:22:55.150Z,95037.44
2019-01-30T15:25:51.855Z,95042.44
2019-01-30T15:28:48.317Z,95039.94
2019-01-30T15:31:51.945Z,95042.47
2019-01-30T15:34:54.815Z,95050.00
2019-01-30T15:37:51.565Z,95046.25
2019-01-30T15:40:48.717Z,95052.46
2019-01-30T15:43:43.444Z,95049.09
2019-01-30T15:46:39.485Z,95057.84
2019-01-30T15:49:36.250Z,95055.34
2019-01-30T15:52:40.534Z,95056.17
2019-01-30T15:55:36.674Z,95059.92
2019-01-30T15:58:33.439Z,95066.09
2019-01-30T16:01:36.369Z,95077.72
2019-01-30T16:04:31.974Z,95064.78
2019-01-30T16:07:28.703Z,95081.32
2019-01-30T16:10:24.286Z,95070.39
2019-01-30T16:13:20.988Z,95077.84
2019-01-30T16:16:18.947Z,95075.39
2019-01-30T16:19:16.535Z,95082.49
2019-01-30T16:22:12.924Z,95082.13
2019-01-30T16:25:09.592Z,95087.13
2019-01-30T16:28:05.245Z,95085.52
2019-01-30T16:31:00.901Z,95085.50
2019-01-30T16:33:57.409Z,95086.31
2019-01-30T16:36:57.059Z,95086.45
2019-01-30T16:39:53.753Z,95090.80
2019-01-30T16:42:50.335Z,95085.87
2019-01-30T16:45:46.804Z,95089.30
2019-01-30T16:51:01.324Z,95091.90
2019-01-30T16:53:31.522Z,95099.38
2019-01-30T16:56:01.825Z,95106.98
2019-01-30T16:58:33.727Z,95105.45
2019-01-30T17:01:04.353Z,95116.70
2019-01-30T17:03:35.348Z,95115.38
2019-01-30T17:06:07.809Z,95112.02
2019-01-30T17:08:38.288Z,95120.34
2019-01-30T17:11:08.923Z,95123.61
2019-01-30T17:13:39.141Z,95119.83
2019-01-30T17:16:09.735Z,95124.36
2019-01-30T17:18:40.868Z,95123.96
2019-01-30T17:21:11.936Z,95130.17
2019-01-30T17:23:42.537Z,95136.44
2019-01-30T17:26:12.817Z,95142.66
2019-01-30T17:28:47.607Z,95145.09
2019-01-30T17:31:22.233Z,95140.93
2019-01-30T17:33:52.403Z,95142.70
2019-01-30T17:36:22.632Z,95141.07
2019-01-30T17:38:53.460Z,95138.53
2019-01-30T17:41:23.673Z,95138.47
2019-01-30T17:43:54.097Z,95152.80
2019-01-30T17:46:24.253Z,95152.37
2019-01-30T17:48:54.542Z,95156.19
2019-01-30T17:51:24.729Z,95151.23
2019-01-30T17:53:55.007Z,95161.23
2019-01-30T17:56:25.291Z,95163.68
2019-01-30T17:58:55.521Z,95165.30
2019-01-30T18:01:27.726Z,95171.09
2019-01-30T18:03:58.431Z,95171.05
2019-01-30T18:06:30.114Z,95177.68
2019-01-30T18:09:01.537Z,95174.31
2019-01-30T18:11:31.921Z,95175.19
2019-01-30T18:14:03.651Z,95177.70
2019-01-30T18:16:35.029Z,95183.56
2019-01-30T18:19:05.507Z,95177.68
2019-01-30T18:21:35.984Z,95181.80
2019-01-30T18:24:06.143Z,95185.53
2019-01-30T18:26:38.070Z,95185.52
2019-01-30T18:29:08.294Z,95192.14
2019-01-30T18:31:38.477Z,95190.12
2019-01-30T18:34:09.528Z,95197.25
2019-01-30T18:36:41.093Z,95203.53
2019-01-30T18:39:11.645Z,95202.66
2019-01-30T18:41:41.894Z,95210.99
2019-01-30T18:44:12.161Z,95214.33
2019-01-30T18:46:42.325Z,95211.90
2019-01-30T18:49:12.607Z,95209.82
2019-01-30T18:51:42.800Z,95208.66
2019-01-30T18:54:13.103Z,95211.14
2019-01-30T18:56:43.287Z,95208.95
2019-01-30T18:59:13.567Z,95224.41
2019-01-30T19:01:44.632Z,95226.02
2019-01-30T19:04:14.987Z,95220.16
2019-01-30T19:06:51.968Z,95221.78
2019-01-30T19:09:17.291Z,95223.48
2019-01-30T19:11:47.602Z,95221.36
2019-01-30T19:14:17.845Z,95222.66
2019-01-30T19:16:48.960Z,95227.66
2019-01-30T19:19:20.026Z,95230.53
2019-01-30T19:21:50.371Z,95230.48
2019-01-30T19:24:20.625Z,95231.64
2019-01-30T19:26:50.970Z,95240.36
2019-01-30T19:29:21.965Z,95227.89
2019-01-30T19:31:53.240Z,95238.37
2019-01-30T19:34:23.839Z,95235.88
2019-01-30T19:37:03.182Z,95243.78
2019-01-30T19:39:28.577Z,95244.19
2019-01-30T19:41:59.599Z,95240.44
2019-01-30T19:44:30.633Z,95244.19
2019-01-30T19:47:01.636Z,95253.34
2019-01-30T19:49:31.885Z,95247.94
2019-01-30T19:52:02.894Z,95257.08
2019-01-30T19:54:33.237Z,95252.06
2019-01-30T19:57:03.849Z,95245.81
2019-01-30T19:59:35.665Z,95250.85
2019-01-30T20:02:06.203Z,95250.02
2019-01-30T20:04:36.443Z,95254.22
2019-01-30T20:07:14.429Z,95250.08
2019-01-30T20:09:39.513Z,95261.27
2019-01-30T20:12:09.953Z,95262.09
2019-01-30T20:14:40.261Z,95261.34
2019-01-30T20:17:10.518Z,95260.02
2019-01-30T20:19:40.700Z,95264.22
2019-01-30T20:22:11.090Z,95266.67
2019-01-30T20:24:42.292Z,95268.27
2019-01-30T20:27:13.444Z,95268.20
2019-01-30T20:29:47.023Z,95269.80
2019-01-30T20:32:17.446Z,95275.65
2019-01-30T20:34:47.846Z,95279.00
2019-01-30T20:37:25.920Z,95279.00
2019-01-30T20:39:51.142Z,95279.38
2019-01-30T20:42:22.358Z,95285.62
2019-01-30T20:44:52.606Z,95280.17
